Triumph II — WY6769 — position and weather

sailwx.info

Track history (hours):
 
Tides and Currents Weather Stations Pressure Air Temp Water Temp Dewpoint Dewpoint Depression Visibility Wind Speed Wind Dir Waves Ship Positions

Triumph II

Owner: ANCHORAGE LAUNCH SERVICE CO, PORTLAND, OR. More information available from US FCC via Universal Licensing System.

Last reported at 2018-Feb-20 11:58 UTC. Time now 2018-Feb-20 12:05 UTC.
Position N 46°12' W 123°48'.

Length 19 m.

Type: Passenger vessel. MMSI: 366970430.

Date/timePositionNaut miles runAvg speedWind from/ knotsBaromVisibWave heightAir tempDewpointWater temp
2018-Feb-20 11:58N 46°12' W 123°48'0 0.0
2018-Feb-20 11:28N 46°12' W 123°48'0 0.0
2018-Feb-20 10:58N 46°12' W 123°48'0 0.0
2018-Feb-20 10:28N 46°12' W 123°48'0 0.0
2018-Feb-20 09:58N 46°12' W 123°48'0 0.0
2018-Feb-20 09:28N 46°12' W 123°48'0 0.0
2018-Feb-20 08:58N 46°12' W 123°48'0 0.0
2018-Feb-20 08:28N 46°12' W 123°48'0 0.0
2018-Feb-20 07:58N 46°12' W 123°48'0 0.0
2018-Feb-20 07:28N 46°12' W 123°48'0 0.0
2018-Feb-20 06:58N 46°12' W 123°48'0 0.0
2018-Feb-20 06:28N 46°12' W 123°48'0 0.0
2018-Feb-20 05:58N 46°12' W 123°48'0 0.0
2018-Feb-20 05:28N 46°12' W 123°48'0 0.0
2018-Feb-20 04:58N 46°12' W 123°48'0 0.0
2018-Feb-20 04:28N 46°12' W 123°48'0 0.0
2018-Feb-20 03:58N 46°12' W 123°48'0 0.0
2018-Feb-20 03:28N 46°12' W 123°48'0 0.0
2018-Feb-20 02:58N 46°12' W 123°48'0 0.0
2018-Feb-20 02:28N 46°12' W 123°48'0 0.0
2018-Feb-20 01:58N 46°12' W 123°48'0 0.0
2018-Feb-20 01:25N 46°12' W 123°48'3 7.6
2018-Feb-20 01:00N 46°14' W 123°44'0 0.0
2018-Feb-20 00:30N 46°14' W 123°44'0 0.3
2018-Feb-19 23:59N 46°14' W 123°45'2 3.2
2018-Feb-19 23:29N 46°13' W 123°47'2 3.4
2018-Feb-19 22:59N 46°12' W 123°48'0 0.0
2018-Feb-19 22:29N 46°12' W 123°48'0 0.0
2018-Feb-19 21:59N 46°12' W 123°48'0 0.0
2018-Feb-19 21:29N 46°12' W 123°48'0 0.0
2018-Feb-19 20:59N 46°12' W 123°48'0 0.0
2018-Feb-19 20:29N 46°12' W 123°48'0 0.0
2018-Feb-19 20:00N 46°12' W 123°48'3 2.5
2018-Feb-19 18:57N 46°13' W 123°45'3 3.3
2018-Feb-19 18:07N 46°12' W 123°48'0 0.0
2018-Feb-19 17:55N 46°12' W 123°48'0 0.8
2018-Feb-19 17:29N 46°12' W 123°49'0 0.7
2018-Feb-19 16:59N 46°12' W 123°48'0 0.2
2018-Feb-19 16:28N 46°12' W 123°48'0 0.0
2018-Feb-19 15:58N 46°12' W 123°48'0 0.0
2018-Feb-19 15:28N 46°12' W 123°48'0 0.0
2018-Feb-19 14:58N 46°12' W 123°48'0 0.0
2018-Feb-19 14:28N 46°12' W 123°48'0 0.0
2018-Feb-19 13:58N 46°12' W 123°48'0 0.0
2018-Feb-19 13:28N 46°12' W 123°48'0 0.0
2018-Feb-19 12:58N 46°12' W 123°48'0 0.0
2018-Feb-19 12:28N 46°12' W 123°48'0 0.0
2018-Feb-19 11:58N 46°12' W 123°48'0 0.0
2018-Feb-19 10:46N 46°12' W 123°48'0 0.0
2018-Feb-19 10:29N 46°12' W 123°48'0 0.0
2018-Feb-19 09:58N 46°12' W 123°48'0 0.0
2018-Feb-19 09:08N 46°12' W 123°48'0 0.0
2018-Feb-19 08:59N 46°12' W 123°48'0 0.0
2018-Feb-19 08:28N 46°12' W 123°48'0 0.0
2018-Feb-19 07:41N 46°12' W 123°48'0 0.0
2018-Feb-19 07:29N 46°12' W 123°48'0 0.0
2018-Feb-19 06:56N 46°12' W 123°48'0 0.0
2018-Feb-19 06:28N 46°12' W 123°48'0 0.0
2018-Feb-19 05:59N 46°12' W 123°48'0 0.0
2018-Feb-19 05:17N 46°12' W 123°48'0 0.0
2018-Feb-19 04:58N 46°12' W 123°48'0 0.0
2018-Feb-19 04:29N 46°12' W 123°48'0 0.0
2018-Feb-19 03:59N 46°12' W 123°48'0 0.0
2018-Feb-19 03:29N 46°12' W 123°48'0 0.0
2018-Feb-19 02:59N 46°12' W 123°48'0 0.0
2018-Feb-19 02:29N 46°12' W 123°48'0 0.0
2018-Feb-19 01:59N 46°12' W 123°48'0 0.0
2018-Feb-19 01:29N 46°12' W 123°48'0 0.0
2018-Feb-19 00:59N 46°12' W 123°48'0 0.0
2018-Feb-19 00:29N 46°12' W 123°48'0 0.0
2018-Feb-18 23:59N 46°12' W 123°48'0 0.0
2018-Feb-18 23:29N 46°12' W 123°48'0 0.0
2018-Feb-18 22:59N 46°12' W 123°48'0 0.0
2018-Feb-18 22:29N 46°12' W 123°48'0 0.0
2018-Feb-18 21:59N 46°12' W 123°48'0 0.0
2018-Feb-18 21:29N 46°12' W 123°48'0 0.0
2018-Feb-18 20:59N 46°12' W 123°48'0 0.0
2018-Feb-18 20:29N 46°12' W 123°48'0 0.0
2018-Feb-18 19:59N 46°12' W 123°48'0 0.0
2018-Feb-18 19:29N 46°12' W 123°48'0 0.0
2018-Feb-18 18:59N 46°12' W 123°48'0 0.0
2018-Feb-18 18:29N 46°12' W 123°48'0 0.0
2018-Feb-18 17:59N 46°12' W 123°48'0 0.0
2018-Feb-18 17:29N 46°12' W 123°48'0 0.0
2018-Feb-18 16:59N 46°12' W 123°48'0 0.0
2018-Feb-18 16:29N 46°12' W 123°48'0 0.0
2018-Feb-18 15:59N 46°12' W 123°48'0 0.0
2018-Feb-18 15:29N 46°12' W 123°48'0 0.0
2018-Feb-18 14:59N 46°12' W 123°48'0 0.0
2018-Feb-18 14:29N 46°12' W 123°48'0 0.0
2018-Feb-18 13:59N 46°12' W 123°48'0 0.0
2018-Feb-18 13:29N 46°12' W 123°48'0 0.0
2018-Feb-18 12:59N 46°12' W 123°48'0 0.0
2018-Feb-18 12:29N 46°12' W 123°48'0 0.0
2018-Feb-18 11:59N 46°12' W 123°48'0 0.0
2018-Feb-18 11:29N 46°12' W 123°48'0 0.0
2018-Feb-18 10:59N 46°12' W 123°48'0 0.0
2018-Feb-18 10:29N 46°12' W 123°48'0 0.0
2018-Feb-18 09:47N 46°12' W 123°48'0 0.0
2018-Feb-18 09:29N 46°12' W 123°48'0 0.0
2018-Feb-18 08:59N 46°12' W 123°48'0 0.0
2018-Feb-18 08:29N 46°12' W 123°48'0 0.0
2018-Feb-18 07:56N 46°12' W 123°48'0 0.0
2018-Feb-18 07:29N 46°12' W 123°48'0 0.0
2018-Feb-18 06:59N 46°12' W 123°48'0 0.0
2018-Feb-18 06:29N 46°12' W 123°48'0 0.0
2018-Feb-18 05:59N 46°12' W 123°48'0 0.0
2018-Feb-18 05:29N 46°12' W 123°48'0 0.0
2018-Feb-18 04:59N 46°12' W 123°48'0 0.0
2018-Feb-18 04:29N 46°12' W 123°48'0 0.0
2018-Feb-18 03:59N 46°12' W 123°48'0 0.0
2018-Feb-18 03:29N 46°12' W 123°48'0 0.0
2018-Feb-18 02:59N 46°12' W 123°48'0 0.0
2018-Feb-18 02:29N 46°12' W 123°48'0 0.0
2018-Feb-18 01:59N 46°12' W 123°48'0 0.0
2018-Feb-18 01:29N 46°12' W 123°48'0 0.0
2018-Feb-18 00:59N 46°12' W 123°48'0 0.0
2018-Feb-18 00:11N 46°12' W 123°48'0 0.0
2018-Feb-17 23:47N 46°12' W 123°48'0 0.0
2018-Feb-17 23:30N 46°12' W 123°48'0 0.0
2018-Feb-17 22:59N 46°12' W 123°48'0 0.0
2018-Feb-17 22:29N 46°12' W 123°48'0 0.0
2018-Feb-17 21:59N 46°12' W 123°48'0 0.0
2018-Feb-17 21:29N 46°12' W 123°48'0 0.0
2018-Feb-17 20:59N 46°12' W 123°48'0 0.0
2018-Feb-17 20:29N 46°12' W 123°48'0 0.0
2018-Feb-17 19:59N 46°12' W 123°48'0 0.0
2018-Feb-17 19:29N 46°12' W 123°48'0 0.0
2018-Feb-17 18:35N 46°12' W 123°48'0 0.0
2018-Feb-17 18:29N 46°12' W 123°48'1 1.3
2018-Feb-17 17:43N 46°11' W 123°50'1 4.5
2018-Feb-17 17:28N 46°12' W 123°48'0 0.4
2018-Feb-17 16:59N 46°12' W 123°48'0 0.0
2018-Feb-17 16:29N 46°12' W 123°48'1 1.0
2018-Feb-17 16:00N 46°12' W 123°49'1 1.0
2018-Feb-17 15:29N 46°12' W 123°48'0 0.0
2018-Feb-17 14:59N 46°12' W 123°48'0 0.0
2018-Feb-17 14:29N 46°12' W 123°48'0 0.0
2018-Feb-17 13:59N 46°12' W 123°48'0 0.0
2018-Feb-17 13:26N 46°12' W 123°48'0 0.0
2018-Feb-17 11:56N 46°12' W 123°48'0 0.0
2018-Feb-17 11:07N 46°12' W 123°48'0 0.0
2018-Feb-17 10:23N 46°12' W 123°48'0 0.0
2018-Feb-17 09:59N 46°12' W 123°48'0 0.0
2018-Feb-17 09:29N 46°12' W 123°48'0 0.0
2018-Feb-17 08:59N 46°12' W 123°48'0 0.0
2018-Feb-17 08:29N 46°12' W 123°48'0 0.0
2018-Feb-17 07:59N 46°12' W 123°48'0 0.0
2018-Feb-17 07:29N 46°12' W 123°48'0 0.0
2018-Feb-17 06:59N 46°12' W 123°48'0 0.0
2018-Feb-17 06:29N 46°12' W 123°48'0 0.0
2018-Feb-17 05:59N 46°12' W 123°48'0 0.0
2018-Feb-17 05:29N 46°12' W 123°48'0 0.0
2018-Feb-17 04:59N 46°12' W 123°48'0 0.0
2018-Feb-17 04:29N 46°12' W 123°48'0 0.0
2018-Feb-17 03:35N 46°12' W 123°48'0 0.0
2018-Feb-17 03:14N 46°12' W 123°48'0 0.0
2018-Feb-17 02:56N 46°12' W 123°48'0 0.0
2018-Feb-17 02:29N 46°12' W 123°48'0 0.0
2018-Feb-17 01:59N 46°12' W 123°48'0 0.0
2018-Feb-17 01:29N 46°12' W 123°48'0 0.0
2018-Feb-17 00:59N 46°12' W 123°48'0 0.0
2018-Feb-17 00:29N 46°12' W 123°48'0 0.0
2018-Feb-16 23:59N 46°12' W 123°48'0 0.2
2018-Feb-16 23:29N 46°12' W 123°48'4 7.3
2018-Feb-16 22:59N 46°14' W 123°44'2 4.7
2018-Feb-16 22:30N 46°13' W 123°47'2 4.5
2018-Feb-16 22:00N 46°14' W 123°44'0 0.1
2018-Feb-16 21:29N 46°14' W 123°44'1 1.8
2018-Feb-16 20:43N 46°13' W 123°46'2 7.2
2018-Feb-16 20:24N 46°12' W 123°48'0 0.2
2018-Feb-16 19:58N 46°12' W 123°48'0 0.0
2018-Feb-16 19:22N 46°12' W 123°48'0 0.0
2018-Feb-16 18:58N 46°12' W 123°48'0 0.0
2018-Feb-16 18:28N 46°12' W 123°48'0 0.0
2018-Feb-16 17:58N 46°12' W 123°48'0 0.0
2018-Feb-16 17:28N 46°12' W 123°48'0 0.0
2018-Feb-16 16:58N 46°12' W 123°48'0 0.0
2018-Feb-16 16:10N 46°12' W 123°48'0 0.0
2018-Feb-16 15:52N 46°12' W 123°48'0 0.0
2018-Feb-16 15:28N 46°12' W 123°48'0 0.0
2018-Feb-16 14:58N 46°12' W 123°48'0 0.0
2018-Feb-16 14:28N 46°12' W 123°48'0 0.0
2018-Feb-16 13:58N 46°12' W 123°48'0 0.0
2018-Feb-16 13:28N 46°12' W 123°48'0 0.0
2018-Feb-16 12:58N 46°12' W 123°48'0 0.0
2018-Feb-16 12:28N 46°12' W 123°48'0 0.0
2018-Feb-16 11:46N 46°12' W 123°48'0 0.0
2018-Feb-16 11:28N 46°12' W 123°48'0 0.0
2018-Feb-16 10:58N 46°12' W 123°48'0 0.0
2018-Feb-16 10:28N 46°12' W 123°48'0 0.0
2018-Feb-16 09:58N 46°12' W 123°48'0 0.0
2018-Feb-16 09:01N 46°12' W 123°48'0 0.0
2018-Feb-16 08:58N 46°12' W 123°48'0 0.0
2018-Feb-16 08:28N 46°12' W 123°48'0 0.0
2018-Feb-16 07:58N 46°12' W 123°48'0 0.0
2018-Feb-16 07:28N 46°12' W 123°48'0 0.0
2018-Feb-16 06:58N 46°12' W 123°48'0 0.0
2018-Feb-16 06:28N 46°12' W 123°48'0 0.0
2018-Feb-16 05:58N 46°12' W 123°48'0 0.0
2018-Feb-16 05:28N 46°12' W 123°48'0 0.0
2018-Feb-16 04:55N 46°12' W 123°48'0 0.0
2018-Feb-16 04:28N 46°12' W 123°48'0 0.0
2018-Feb-16 03:58N 46°12' W 123°48'0 0.0
2018-Feb-16 03:28N 46°12' W 123°48'0 0.0
2018-Feb-16 02:58N 46°12' W 123°48'0 0.0
2018-Feb-16 02:28N 46°12' W 123°48'0 0.0
2018-Feb-16 01:58N 46°12' W 123°48'0 0.0
2018-Feb-16 01:28N 46°12' W 123°48'0 0.0
2018-Feb-16 00:58N 46°12' W 123°48'0 0.0
2018-Feb-16 00:25N 46°12' W 123°48'0 0.0
2018-Feb-15 23:58N 46°12' W 123°48'0 0.0
2018-Feb-15 23:28N 46°12' W 123°48'0 0.0
2018-Feb-15 22:58N 46°12' W 123°48'0 0.0
2018-Feb-15 22:28N 46°12' W 123°48'0 0.0
2018-Feb-15 21:58N 46°12' W 123°48'0 0.0
2018-Feb-15 21:28N 46°12' W 123°48'0 0.0
2018-Feb-15 20:58N 46°12' W 123°48'0 0.0
2018-Feb-15 20:28N 46°12' W 123°48'0 0.0
2018-Feb-15 19:55N 46°12' W 123°48'0 0.0
2018-Feb-15 19:28N 46°12' W 123°48'0 0.0
2018-Feb-15 18:58N 46°12' W 123°48'0 0.0
2018-Feb-15 18:19N 46°12' W 123°48'0 0.0
2018-Feb-15 17:58N 46°12' W 123°48'0 0.0
2018-Feb-15 17:19N 46°12' W 123°48'0 0.0
2018-Feb-15 16:58N 46°12' W 123°48'0 0.0
2018-Feb-15 16:28N 46°12' W 123°48'0 0.0
2018-Feb-15 15:58N 46°12' W 123°48'0 0.0
2018-Feb-15 15:28N 46°12' W 123°48'0 0.0
2018-Feb-15 14:58N 46°12' W 123°48'0 0.0
2018-Feb-15 14:28N 46°12' W 123°48'0 0.0
2018-Feb-15 13:58N 46°12' W 123°48'0 0.0
2018-Feb-15 13:28N 46°12' W 123°48'0 0.0
2018-Feb-15 12:58N 46°12' W 123°48'0 0.0
2018-Feb-15 12:28N 46°12' W 123°48'0 0.0
2018-Feb-15 11:58N 46°12' W 123°48'0 0.0
2018-Feb-15 11:13N 46°12' W 123°48'0 0.0
2018-Feb-15 10:52N 46°12' W 123°48'0 0.0
2018-Feb-15 10:10N 46°12' W 123°48'0 0.0
2018-Feb-15 09:58N 46°12' W 123°48'0 0.0
2018-Feb-15 09:28N 46°12' W 123°48'0 0.0
2018-Feb-15 08:58N 46°12' W 123°48'0 0.0
2018-Feb-15 08:28N 46°12' W 123°48'0 0.0
2018-Feb-15 07:58N 46°12' W 123°48'0 0.0
2018-Feb-15 07:28N 46°12' W 123°48'0 0.0
2018-Feb-15 06:58N 46°12' W 123°48'0 0.0
2018-Feb-15 06:28N 46°12' W 123°48'0 0.0
2018-Feb-15 05:58N 46°12' W 123°48'0 0.0
2018-Feb-15 05:28N 46°12' W 123°48'0 0.0
2018-Feb-15 04:58N 46°12' W 123°48'0 0.0
2018-Feb-15 04:28N 46°12' W 123°48'0 0.0
2018-Feb-15 03:58N 46°12' W 123°48'0 0.0
2018-Feb-15 03:28N 46°12' W 123°48'0 0.0
2018-Feb-15 02:58N 46°12' W 123°48'0 0.0
2018-Feb-15 02:28N 46°12' W 123°48'0 0.0
2018-Feb-15 01:58N 46°12' W 123°48'0 0.0
2018-Feb-15 01:28N 46°12' W 123°48'0 0.0
2018-Feb-15 00:58N 46°12' W 123°48'0 0.0
2018-Feb-15 00:28N 46°12' W 123°48'0 0.0
2018-Feb-14 23:58N 46°12' W 123°48'0 0.0
2018-Feb-14 23:28N 46°12' W 123°48'0 0.0
2018-Feb-14 22:58N 46°12' W 123°48'0 0.0
2018-Feb-14 22:28N 46°12' W 123°48'0 0.0
2018-Feb-14 21:58N 46°12' W 123°48'0 0.0
2018-Feb-14 21:28N 46°12' W 123°48'0 0.0
2018-Feb-14 20:58N 46°12' W 123°48'0 0.0
2018-Feb-14 20:28N 46°12' W 123°48'0 0.0
2018-Feb-14 19:58N 46°12' W 123°48'0 0.0
2018-Feb-14 19:28N 46°12' W 123°48'0 0.0
2018-Feb-14 18:52N 46°12' W 123°48'0 0.0
2018-Feb-14 18:28N 46°12' W 123°48'0 0.0
2018-Feb-14 17:58N 46°12' W 123°48'0 0.0
2018-Feb-14 17:28N 46°12' W 123°48'0 0.0
2018-Feb-14 16:55N 46°12' W 123°48'0 0.0
2018-Feb-14 16:28N 46°12' W 123°48'0 0.0
2018-Feb-14 15:46N 46°12' W 123°48'0 0.0
2018-Feb-14 15:28N 46°12' W 123°48'0 0.0
2018-Feb-14 14:58N 46°12' W 123°48'0 0.0
2018-Feb-14 14:28N 46°12' W 123°48'0 0.0
2018-Feb-14 13:58N 46°12' W 123°48'0 0.0
2018-Feb-14 13:28N 46°12' W 123°48'0 0.0
2018-Feb-14 12:58N 46°12' W 123°48'0 0.0
2018-Feb-14 12:28N 46°12' W 123°48'0 0.0
2018-Feb-14 11:49N 46°12' W 123°48'0 0.0
2018-Feb-14 11:28N 46°12' W 123°48'0 0.0
2018-Feb-14 10:58N 46°12' W 123°48'0 0.0
2018-Feb-14 10:28N 46°12' W 123°48'0 0.0
2018-Feb-14 09:58N 46°12' W 123°48'0 0.0
2018-Feb-14 09:28N 46°12' W 123°48'0 0.0
2018-Feb-14 08:58N 46°12' W 123°48'0 0.0
2018-Feb-14 08:28N 46°12' W 123°48'0 0.0
2018-Feb-14 07:58N 46°12' W 123°48'0 0.0
2018-Feb-14 07:28N 46°12' W 123°48'0 0.0
2018-Feb-14 06:58N 46°12' W 123°48'0 0.0
2018-Feb-14 06:28N 46°12' W 123°48'0 0.0
2018-Feb-14 05:58N 46°12' W 123°48'0 0.0
2018-Feb-14 05:28N 46°12' W 123°48'0 0.0
2018-Feb-14 04:58N 46°12' W 123°48'0 0.0
2018-Feb-14 04:28N 46°12' W 123°48'0 0.0
2018-Feb-14 03:58N 46°12' W 123°48'0 0.0
2018-Feb-14 03:28N 46°12' W 123°48'0 0.0
2018-Feb-14 02:58N 46°12' W 123°48'0 0.0
2018-Feb-14 02:28N 46°12' W 123°48'0 0.0
2018-Feb-14 01:58N 46°12' W 123°48'0 0.0
2018-Feb-14 01:28N 46°12' W 123°48'0 0.0
2018-Feb-14 00:58N 46°12' W 123°48'0 0.0
2018-Feb-14 00:10N 46°12' W 123°48'0 0.0
2018-Feb-13 23:58N 46°12' W 123°48'0 0.0
2018-Feb-13 23:28N 46°12' W 123°48'0 0.0
2018-Feb-13 22:58N 46°12' W 123°48'0 0.0
2018-Feb-13 22:28N 46°12' W 123°48'0 0.0
2018-Feb-13 21:16N 46°12' W 123°48'0 0.0
2018-Feb-13 20:31N 46°12' W 123°48'0 0.0
2018-Feb-13 20:28N 46°12' W 123°48'0 0.0
2018-Feb-13 19:58N 46°12' W 123°48'0 0.0
2018-Feb-13 19:28N 46°12' W 123°48'0 0.0
2018-Feb-13 18:58N 46°12' W 123°48'0 0.0
2018-Feb-13 18:16N 46°12' W 123°48'0 0.0
2018-Feb-13 17:22N 46°12' W 123°48'0 0.0
2018-Feb-13 16:58N 46°12' W 123°48'0 0.0
2018-Feb-13 16:28N 46°12' W 123°48'0 0.0
2018-Feb-13 15:40N 46°12' W 123°48'0 0.0
2018-Feb-13 15:19N 46°12' W 123°48'0 0.0
2018-Feb-13 14:58N 46°12' W 123°48'0 0.0
2018-Feb-13 14:28N 46°12' W 123°48'0 0.0
2018-Feb-13 13:58N 46°12' W 123°48'0 0.0
2018-Feb-13 13:28N 46°12' W 123°48'0 0.0
2018-Feb-13 12:43N 46°12' W 123°48'0 0.0
2018-Feb-13 12:28N 46°12' W 123°48'0 0.0
2018-Feb-13 11:58N 46°12' W 123°48'0 0.0
2018-Feb-13 11:28N 46°12' W 123°48'0 0.0
2018-Feb-13 10:58N 46°12' W 123°48'0 0.0
2018-Feb-13 10:28N 46°12' W 123°48'0 0.0
2018-Feb-13 09:58N 46°12' W 123°48'0 0.0
2018-Feb-13 09:28N 46°12' W 123°48'0 0.0
2018-Feb-13 08:58N 46°12' W 123°48'0 0.0
2018-Feb-13 08:28N 46°12' W 123°48'0 0.0
2018-Feb-13 07:58N 46°12' W 123°48'0 0.0
2018-Feb-13 07:28N 46°12' W 123°48'0 0.0
2018-Feb-13 06:58N 46°12' W 123°48'0 0.0
2018-Feb-13 06:28N 46°12' W 123°48'0 0.0
2018-Feb-13 05:49N 46°12' W 123°48'0 0.0
2018-Feb-13 05:22N 46°12' W 123°48'0 0.0
2018-Feb-13 04:58N 46°12' W 123°48'0 0.0
2018-Feb-13 04:28N 46°12' W 123°48'0 0.0
2018-Feb-13 03:59N 46°12' W 123°48'0 0.0
2018-Feb-13 03:28N 46°12' W 123°48'0 0.0
2018-Feb-13 02:58N 46°12' W 123°48'0 0.0
2018-Feb-13 02:28N 46°12' W 123°48'0 0.0
2018-Feb-13 01:58N 46°12' W 123°48'0 0.0
2018-Feb-13 01:28N 46°12' W 123°48'0 0.0
2018-Feb-13 00:59N 46°12' W 123°48'0 0.0
2018-Feb-13 00:10N 46°12' W 123°48'0 0.0
2018-Feb-12 23:58N 46°12' W 123°48'0 0.0
2018-Feb-12 23:28N 46°12' W 123°48'0 0.0
2018-Feb-12 22:58N 46°12' W 123°48'0 0.0
2018-Feb-12 22:28N 46°12' W 123°48'0 0.0
2018-Feb-12 21:58N 46°12' W 123°48'0 0.0
2018-Feb-12 21:28N 46°12' W 123°48'4 9.3
2018-Feb-12 21:00N 46°14' W 123°43'4 5.9
2018-Feb-12 20:17N 46°12' W 123°48'0 0.0
2018-Feb-12 19:59N 46°12' W 123°48'0 0.0
2018-Feb-12 19:29N 46°12' W 123°48'0 0.0
2018-Feb-12 18:59N 46°12' W 123°48'2 3.0
2018-Feb-12 18:28N 46°12' W 123°50'1 2.5
2018-Feb-12 18:00N 46°12' W 123°49'0 0.0
2018-Feb-12 17:30N 46°12' W 123°49'1 1.1
2018-Feb-12 16:59N 46°12' W 123°48'0 0.0
2018-Feb-12 16:20N 46°12' W 123°48'0 0.0
2018-Feb-12 15:59N 46°12' W 123°48'0 0.0
2018-Feb-12 15:29N 46°12' W 123°48'0 0.0
2018-Feb-12 14:59N 46°12' W 123°48'0 0.0
2018-Feb-12 14:29N 46°12' W 123°48'0 0.0
2018-Feb-12 13:59N 46°12' W 123°48'0 0.0
2018-Feb-12 13:30N 46°12' W 123°48'1 2.7
2018-Feb-12 12:57N 46°13' W 123°47'1 3.2
2018-Feb-12 12:29N 46°12' W 123°48'0 0.0
2018-Feb-12 11:59N 46°12' W 123°48'0 0.0
2018-Feb-12 11:29N 46°12' W 123°48'0 0.0
2018-Feb-12 10:59N 46°12' W 123°48'0 0.0
2018-Feb-12 10:29N 46°12' W 123°48'0 0.0
2018-Feb-12 09:59N 46°12' W 123°48'0 0.0
2018-Feb-12 09:29N 46°12' W 123°48'1 2.1
2018-Feb-12 09:00N 46°12' W 123°47'1 1.0
2018-Feb-12 08:29N 46°13' W 123°48'0 0.1
2018-Feb-12 08:00N 46°13' W 123°47'1 1.1
2018-Feb-12 07:30N 46°12' W 123°48'1 1.3
2018-Feb-12 07:00N 46°13' W 123°47'0 0.1
2018-Feb-12 06:29N 46°13' W 123°47'0 0.1
2018-Feb-12 05:46N 46°13' W 123°47'0 0.1
2018-Feb-12 05:29N 46°13' W 123°47'3 7.0
2018-Feb-12 05:00N 46°14' W 123°43'3 6.6
2018-Feb-12 04:30N 46°13' W 123°47'1 2.7
2018-Feb-12 04:00N 46°12' W 123°45'1 1.7
2018-Feb-12 03:30N 46°13' W 123°45'1 2.1
2018-Feb-12 02:59N 46°12' W 123°46'1 1.9
2018-Feb-12 02:30N 46°13' W 123°45'2 4.1
2018-Feb-12 01:58N 46°12' W 123°48'0 0.0
2018-Feb-12 01:28N 46°12' W 123°48'0 0.0
2018-Feb-12 00:58N 46°12' W 123°48'0 0.0
2018-Feb-12 00:28N 46°12' W 123°48'0 0.0
2018-Feb-11 23:58N 46°12' W 123°48'0 0.0
2018-Feb-11 23:28N 46°12' W 123°48'0 0.0
2018-Feb-11 22:58N 46°12' W 123°48'0 0.0
2018-Feb-11 22:28N 46°12' W 123°48'0 0.0
2018-Feb-11 21:58N 46°12' W 123°48'0 0.0
2018-Feb-11 21:28N 46°12' W 123°48'0 0.0
2018-Feb-11 20:55N 46°12' W 123°48'0 0.0
2018-Feb-11 20:19N 46°12' W 123°48'0 0.0
2018-Feb-11 19:58N 46°12' W 123°48'0 0.0
2018-Feb-11 19:13N 46°12' W 123°48'0 0.0
2018-Feb-11 18:58N 46°12' W 123°48'0 0.0
2018-Feb-11 18:28N 46°12' W 123°48'1 1.5
2018-Feb-11 18:00N 46°12' W 123°49'1 1.2
2018-Feb-11 17:30N 46°12' W 123°49'1 1.9
2018-Feb-11 17:00N 46°12' W 123°48'0 0.6
2018-Feb-11 16:27N 46°12' W 123°48'0 0.2
2018-Feb-11 15:59N 46°12' W 123°48'0 0.0
2018-Feb-11 15:29N 46°12' W 123°48'0 0.0
2018-Feb-11 14:59N 46°12' W 123°48'0 0.0
2018-Feb-11 14:29N 46°12' W 123°48'0 0.0
2018-Feb-11 13:59N 46°12' W 123°48'0 0.0
2018-Feb-11 13:29N 46°12' W 123°48'0 0.0
2018-Feb-11 12:59N 46°12' W 123°48'0 0.0
2018-Feb-11 12:29N 46°12' W 123°48'0 0.0
2018-Feb-11 11:53N 46°12' W 123°48'0 0.0
2018-Feb-11 11:29N 46°12' W 123°48'0 0.0
2018-Feb-11 10:59N 46°12' W 123°48'0 0.0
2018-Feb-11 10:29N 46°12' W 123°48'0 0.0
2018-Feb-11 09:59N 46°12' W 123°48'0 0.0
2018-Feb-11 09:29N 46°12' W 123°48'0 0.0
2018-Feb-11 08:59N 46°12' W 123°48'0 0.0
2018-Feb-11 08:29N 46°12' W 123°48'0 0.0
2018-Feb-11 07:59N 46°12' W 123°48'0 0.0
2018-Feb-11 07:29N 46°12' W 123°48'0 0.0
2018-Feb-11 06:59N 46°12' W 123°48'0 0.0
2018-Feb-11 06:29N 46°12' W 123°48'0 0.0
2018-Feb-11 05:50N 46°12' W 123°48'0 0.0
2018-Feb-11 05:29N 46°12' W 123°48'0 0.0
2018-Feb-11 04:59N 46°12' W 123°48'0 0.0
2018-Feb-11 04:29N 46°12' W 123°48'0 0.0
2018-Feb-11 03:59N 46°12' W 123°48'0 0.0
2018-Feb-11 03:29N 46°12' W 123°48'0 0.0
2018-Feb-11 02:59N 46°12' W 123°48'0 0.0
2018-Feb-11 02:17N 46°12' W 123°48'0 0.7
2018-Feb-11 01:59N 46°12' W 123°48'1 1.1
2018-Feb-11 01:28N 46°12' W 123°49'1 1.1
2018-Feb-11 00:58N 46°12' W 123°48'0 0.0
2018-Feb-11 00:25N 46°12' W 123°48'0 0.0
2018-Feb-10 23:58N 46°12' W 123°48'0 0.0
2018-Feb-10 23:28N 46°12' W 123°48'0 0.0
2018-Feb-10 22:58N 46°12' W 123°48'0 0.0
2018-Feb-10 22:28N 46°12' W 123°48'0 0.0
2018-Feb-10 21:58N 46°12' W 123°48'0 0.0
2018-Feb-10 21:28N 46°12' W 123°48'0 0.0
2018-Feb-10 20:58N 46°12' W 123°48'0 0.0
2018-Feb-10 20:30N 46°12' W 123°48'0 0.6
2018-Feb-10 20:00N 46°12' W 123°49'0 0.7
2018-Feb-10 19:28N 46°12' W 123°48'0 0.7
2018-Feb-10 18:59N 46°12' W 123°49'2 5.1
2018-Feb-10 18:30N 46°13' W 123°46'2 4.5
2018-Feb-10 17:59N 46°12' W 123°48'4 9.0
2018-Feb-10 17:29N 46°14' W 123°43'4 8.8
2018-Feb-10 17:00N 46°12' W 123°48'0 0.5
2018-Feb-10 16:29N 46°12' W 123°48'0 0.2
2018-Feb-10 15:59N 46°12' W 123°48'0 0.0
2018-Feb-10 15:29N 46°12' W 123°48'0 0.0
2018-Feb-10 14:59N 46°12' W 123°48'0 0.0
2018-Feb-10 14:29N 46°12' W 123°48'0 0.0
2018-Feb-10 13:59N 46°12' W 123°48'0 0.0
2018-Feb-10 13:29N 46°12' W 123°48'0 0.0
2018-Feb-10 12:59N 46°12' W 123°48'0 0.0
2018-Feb-10 12:29N 46°12' W 123°48'0 0.0
2018-Feb-10 11:59N 46°12' W 123°48'  
Track history (hours):
 
Tides and Currents Weather Stations Pressure Air Temp Water Temp Dewpoint Dewpoint Depression Visibility Wind Speed Wind Dir Waves Ship Positions

Triumph II

Owner: ANCHORAGE LAUNCH SERVICE CO, PORTLAND, OR. More information available from US FCC via Universal Licensing System.

Last reported at 2018-Feb-20 11:58 UTC. Time now 2018-Feb-20 12:05 UTC.
Position N 46°12' W 123°48'.

Length 19 m.

Type: Passenger vessel. MMSI: 366970430.

Date/timePositionNaut miles runAvg speedWind from/ knotsBaromVisibWave heightAir tempDewpointWater temp
2018-Feb-20 11:58N 46°12' W 123°48'0 0.0
2018-Feb-20 11:28N 46°12' W 123°48'0 0.0
2018-Feb-20 10:58N 46°12' W 123°48'0 0.0
2018-Feb-20 10:28N 46°12' W 123°48'0 0.0
2018-Feb-20 09:58N 46°12' W 123°48'0 0.0
2018-Feb-20 09:28N 46°12' W 123°48'0 0.0
2018-Feb-20 08:58N 46°12' W 123°48'0 0.0
2018-Feb-20 08:28N 46°12' W 123°48'0 0.0
2018-Feb-20 07:58N 46°12' W 123°48'0 0.0
2018-Feb-20 07:28N 46°12' W 123°48'0 0.0
2018-Feb-20 06:58N 46°12' W 123°48'0 0.0
2018-Feb-20 06:28N 46°12' W 123°48'0 0.0
2018-Feb-20 05:58N 46°12' W 123°48'0 0.0
2018-Feb-20 05:28N 46°12' W 123°48'0 0.0
2018-Feb-20 04:58N 46°12' W 123°48'0 0.0
2018-Feb-20 04:28N 46°12' W 123°48'0 0.0
2018-Feb-20 03:58N 46°12' W 123°48'0 0.0
2018-Feb-20 03:28N 46°12' W 123°48'0 0.0
2018-Feb-20 02:58N 46°12' W 123°48'0 0.0
2018-Feb-20 02:28N 46°12' W 123°48'0 0.0
2018-Feb-20 01:58N 46°12' W 123°48'0 0.0
2018-Feb-20 01:25N 46°12' W 123°48'3 7.6
2018-Feb-20 01:00N 46°14' W 123°44'0 0.0
2018-Feb-20 00:30N 46°14' W 123°44'0 0.3
2018-Feb-19 23:59N 46°14' W 123°45'2 3.2
2018-Feb-19 23:29N 46°13' W 123°47'2 3.4
2018-Feb-19 22:59N 46°12' W 123°48'0 0.0
2018-Feb-19 22:29N 46°12' W 123°48'0 0.0
2018-Feb-19 21:59N 46°12' W 123°48'0 0.0
2018-Feb-19 21:29N 46°12' W 123°48'0 0.0
2018-Feb-19 20:59N 46°12' W 123°48'0 0.0
2018-Feb-19 20:29N 46°12' W 123°48'0 0.0
2018-Feb-19 20:00N 46°12' W 123°48'3 2.5
2018-Feb-19 18:57N 46°13' W 123°45'3 3.3
2018-Feb-19 18:07N 46°12' W 123°48'0 0.0
2018-Feb-19 17:55N 46°12' W 123°48'0 0.8
2018-Feb-19 17:29N 46°12' W 123°49'0 0.7
2018-Feb-19 16:59N 46°12' W 123°48'0 0.2
2018-Feb-19 16:28N 46°12' W 123°48'0 0.0
2018-Feb-19 15:58N 46°12' W 123°48'0 0.0
2018-Feb-19 15:28N 46°12' W 123°48'0 0.0
2018-Feb-19 14:58N 46°12' W 123°48'0 0.0
2018-Feb-19 14:28N 46°12' W 123°48'0 0.0
2018-Feb-19 13:58N 46°12' W 123°48'0 0.0
2018-Feb-19 13:28N 46°12' W 123°48'0 0.0
2018-Feb-19 12:58N 46°12' W 123°48'0 0.0
2018-Feb-19 12:28N 46°12' W 123°48'0 0.0
2018-Feb-19 11:58N 46°12' W 123°48'0 0.0
2018-Feb-19 10:46N 46°12' W 123°48'0 0.0
2018-Feb-19 10:29N 46°12' W 123°48'0 0.0
2018-Feb-19 09:58N 46°12' W 123°48'0 0.0
2018-Feb-19 09:08N 46°12' W 123°48'0 0.0
2018-Feb-19 08:59N 46°12' W 123°48'0 0.0
2018-Feb-19 08:28N 46°12' W 123°48'0 0.0
2018-Feb-19 07:41N 46°12' W 123°48'0 0.0
2018-Feb-19 07:29N 46°12' W 123°48'0 0.0
2018-Feb-19 06:56N 46°12' W 123°48'0 0.0
2018-Feb-19 06:28N 46°12' W 123°48'0 0.0
2018-Feb-19 05:59N 46°12' W 123°48'0 0.0
2018-Feb-19 05:17N 46°12' W 123°48'0 0.0
2018-Feb-19 04:58N 46°12' W 123°48'0 0.0
2018-Feb-19 04:29N 46°12' W 123°48'0 0.0
2018-Feb-19 03:59N 46°12' W 123°48'0 0.0
2018-Feb-19 03:29N 46°12' W 123°48'0 0.0
2018-Feb-19 02:59N 46°12' W 123°48'0 0.0
2018-Feb-19 02:29N 46°12' W 123°48'0 0.0
2018-Feb-19 01:59N 46°12' W 123°48'0 0.0
2018-Feb-19 01:29N 46°12' W 123°48'0 0.0
2018-Feb-19 00:59N 46°12' W 123°48'0 0.0
2018-Feb-19 00:29N 46°12' W 123°48'0 0.0
2018-Feb-18 23:59N 46°12' W 123°48'0 0.0
2018-Feb-18 23:29N 46°12' W 123°48'0 0.0
2018-Feb-18 22:59N 46°12' W 123°48'0 0.0
2018-Feb-18 22:29N 46°12' W 123°48'0 0.0
2018-Feb-18 21:59N 46°12' W 123°48'0 0.0
2018-Feb-18 21:29N 46°12' W 123°48'0 0.0
2018-Feb-18 20:59N 46°12' W 123°48'0 0.0
2018-Feb-18 20:29N 46°12' W 123°48'0 0.0
2018-Feb-18 19:59N 46°12' W 123°48'0 0.0
2018-Feb-18 19:29N 46°12' W 123°48'0 0.0
2018-Feb-18 18:59N 46°12' W 123°48'0 0.0
2018-Feb-18 18:29N 46°12' W 123°48'0 0.0
2018-Feb-18 17:59N 46°12' W 123°48'0 0.0
2018-Feb-18 17:29N 46°12' W 123°48'0 0.0
2018-Feb-18 16:59N 46°12' W 123°48'0 0.0
2018-Feb-18 16:29N 46°12' W 123°48'0 0.0
2018-Feb-18 15:59N 46°12' W 123°48'0 0.0
2018-Feb-18 15:29N 46°12' W 123°48'0 0.0
2018-Feb-18 14:59N 46°12' W 123°48'0 0.0
2018-Feb-18 14:29N 46°12' W 123°48'0 0.0
2018-Feb-18 13:59N 46°12' W 123°48'0 0.0
2018-Feb-18 13:29N 46°12' W 123°48'0 0.0
2018-Feb-18 12:59N 46°12' W 123°48'0 0.0
2018-Feb-18 12:29N 46°12' W 123°48'0 0.0
2018-Feb-18 11:59N 46°12' W 123°48'0 0.0
2018-Feb-18 11:29N 46°12' W 123°48'0 0.0
2018-Feb-18 10:59N 46°12' W 123°48'0 0.0
2018-Feb-18 10:29N 46°12' W 123°48'0 0.0
2018-Feb-18 09:47N 46°12' W 123°48'0 0.0
2018-Feb-18 09:29N 46°12' W 123°48'0 0.0
2018-Feb-18 08:59N 46°12' W 123°48'0 0.0
2018-Feb-18 08:29N 46°12' W 123°48'0 0.0
2018-Feb-18 07:56N 46°12' W 123°48'0 0.0
2018-Feb-18 07:29N 46°12' W 123°48'0 0.0
2018-Feb-18 06:59N 46°12' W 123°48'0 0.0
2018-Feb-18 06:29N 46°12' W 123°48'0 0.0
2018-Feb-18 05:59N 46°12' W 123°48'0 0.0
2018-Feb-18 05:29N 46°12' W 123°48'0 0.0
2018-Feb-18 04:59N 46°12' W 123°48'0 0.0
2018-Feb-18 04:29N 46°12' W 123°48'0 0.0
2018-Feb-18 03:59N 46°12' W 123°48'0 0.0
2018-Feb-18 03:29N 46°12' W 123°48'0 0.0
2018-Feb-18 02:59N 46°12' W 123°48'0 0.0
2018-Feb-18 02:29N 46°12' W 123°48'0 0.0
2018-Feb-18 01:59N 46°12' W 123°48'0 0.0
2018-Feb-18 01:29N 46°12' W 123°48'0 0.0
2018-Feb-18 00:59N 46°12' W 123°48'0 0.0
2018-Feb-18 00:11N 46°12' W 123°48'0 0.0
2018-Feb-17 23:47N 46°12' W 123°48'0 0.0
2018-Feb-17 23:30N 46°12' W 123°48'0 0.0
2018-Feb-17 22:59N 46°12' W 123°48'0 0.0
2018-Feb-17 22:29N 46°12' W 123°48'0 0.0
2018-Feb-17 21:59N 46°12' W 123°48'0 0.0
2018-Feb-17 21:29N 46°12' W 123°48'0 0.0
2018-Feb-17 20:59N 46°12' W 123°48'0 0.0
2018-Feb-17 20:29N 46°12' W 123°48'0 0.0
2018-Feb-17 19:59N 46°12' W 123°48'0 0.0
2018-Feb-17 19:29N 46°12' W 123°48'0 0.0
2018-Feb-17 18:35N 46°12' W 123°48'0 0.0
2018-Feb-17 18:29N 46°12' W 123°48'1 1.3
2018-Feb-17 17:43N 46°11' W 123°50'1 4.5
2018-Feb-17 17:28N 46°12' W 123°48'0 0.4
2018-Feb-17 16:59N 46°12' W 123°48'0 0.0
2018-Feb-17 16:29N 46°12' W 123°48'1 1.0
2018-Feb-17 16:00N 46°12' W 123°49'1 1.0
2018-Feb-17 15:29N 46°12' W 123°48'0 0.0
2018-Feb-17 14:59N 46°12' W 123°48'0 0.0
2018-Feb-17 14:29N 46°12' W 123°48'0 0.0
2018-Feb-17 13:59N 46°12' W 123°48'0 0.0
2018-Feb-17 13:26N 46°12' W 123°48'0 0.0
2018-Feb-17 11:56N 46°12' W 123°48'0 0.0
2018-Feb-17 11:07N 46°12' W 123°48'0 0.0
2018-Feb-17 10:23N 46°12' W 123°48'0 0.0
2018-Feb-17 09:59N 46°12' W 123°48'0 0.0
2018-Feb-17 09:29N 46°12' W 123°48'0 0.0
2018-Feb-17 08:59N 46°12' W 123°48'0 0.0
2018-Feb-17 08:29N 46°12' W 123°48'0 0.0
2018-Feb-17 07:59N 46°12' W 123°48'0 0.0
2018-Feb-17 07:29N 46°12' W 123°48'0 0.0
2018-Feb-17 06:59N 46°12' W 123°48'0 0.0
2018-Feb-17 06:29N 46°12' W 123°48'0 0.0
2018-Feb-17 05:59N 46°12' W 123°48'0 0.0
2018-Feb-17 05:29N 46°12' W 123°48'0 0.0
2018-Feb-17 04:59N 46°12' W 123°48'0 0.0
2018-Feb-17 04:29N 46°12' W 123°48'0 0.0
2018-Feb-17 03:35N 46°12' W 123°48'0 0.0
2018-Feb-17 03:14N 46°12' W 123°48'0 0.0
2018-Feb-17 02:56N 46°12' W 123°48'0 0.0
2018-Feb-17 02:29N 46°12' W 123°48'0 0.0
2018-Feb-17 01:59N 46°12' W 123°48'0 0.0
2018-Feb-17 01:29N 46°12' W 123°48'0 0.0
2018-Feb-17 00:59N 46°12' W 123°48'0 0.0
2018-Feb-17 00:29N 46°12' W 123°48'0 0.0
2018-Feb-16 23:59N 46°12' W 123°48'0 0.2
2018-Feb-16 23:29N 46°12' W 123°48'4 7.3
2018-Feb-16 22:59N 46°14' W 123°44'2 4.7
2018-Feb-16 22:30N 46°13' W 123°47'2 4.5
2018-Feb-16 22:00N 46°14' W 123°44'0 0.1
2018-Feb-16 21:29N 46°14' W 123°44'1 1.8
2018-Feb-16 20:43N 46°13' W 123°46'2 7.2
2018-Feb-16 20:24N 46°12' W 123°48'0 0.2
2018-Feb-16 19:58N 46°12' W 123°48'0 0.0
2018-Feb-16 19:22N 46°12' W 123°48'0 0.0
2018-Feb-16 18:58N 46°12' W 123°48'0 0.0
2018-Feb-16 18:28N 46°12' W 123°48'0 0.0
2018-Feb-16 17:58N 46°12' W 123°48'0 0.0
2018-Feb-16 17:28N 46°12' W 123°48'0 0.0
2018-Feb-16 16:58N 46°12' W 123°48'0 0.0
2018-Feb-16 16:10N 46°12' W 123°48'0 0.0
2018-Feb-16 15:52N 46°12' W 123°48'0 0.0
2018-Feb-16 15:28N 46°12' W 123°48'0 0.0
2018-Feb-16 14:58N 46°12' W 123°48'0 0.0
2018-Feb-16 14:28N 46°12' W 123°48'0 0.0
2018-Feb-16 13:58N 46°12' W 123°48'0 0.0
2018-Feb-16 13:28N 46°12' W 123°48'0 0.0
2018-Feb-16 12:58N 46°12' W 123°48'0 0.0
2018-Feb-16 12:28N 46°12' W 123°48'0 0.0
2018-Feb-16 11:46N 46°12' W 123°48'0 0.0
2018-Feb-16 11:28N 46°12' W 123°48'0 0.0
2018-Feb-16 10:58N 46°12' W 123°48'0 0.0
2018-Feb-16 10:28N 46°12' W 123°48'0 0.0
2018-Feb-16 09:58N 46°12' W 123°48'0 0.0
2018-Feb-16 09:01N 46°12' W 123°48'0 0.0
2018-Feb-16 08:58N 46°12' W 123°48'0 0.0
2018-Feb-16 08:28N 46°12' W 123°48'0 0.0
2018-Feb-16 07:58N 46°12' W 123°48'0 0.0
2018-Feb-16 07:28N 46°12' W 123°48'0 0.0
2018-Feb-16 06:58N 46°12' W 123°48'0 0.0
2018-Feb-16 06:28N 46°12' W 123°48'0 0.0
2018-Feb-16 05:58N 46°12' W 123°48'0 0.0
2018-Feb-16 05:28N 46°12' W 123°48'0 0.0
2018-Feb-16 04:55N 46°12' W 123°48'0 0.0
2018-Feb-16 04:28N 46°12' W 123°48'0 0.0
2018-Feb-16 03:58N 46°12' W 123°48'0 0.0
2018-Feb-16 03:28N 46°12' W 123°48'0 0.0
2018-Feb-16 02:58N 46°12' W 123°48'0 0.0
2018-Feb-16 02:28N 46°12' W 123°48'0 0.0
2018-Feb-16 01:58N 46°12' W 123°48'0 0.0
2018-Feb-16 01:28N 46°12' W 123°48'0 0.0
2018-Feb-16 00:58N 46°12' W 123°48'0 0.0
2018-Feb-16 00:25N 46°12' W 123°48'0 0.0
2018-Feb-15 23:58N 46°12' W 123°48'0 0.0
2018-Feb-15 23:28N 46°12' W 123°48'0 0.0
2018-Feb-15 22:58N 46°12' W 123°48'0 0.0
2018-Feb-15 22:28N 46°12' W 123°48'0 0.0
2018-Feb-15 21:58N 46°12' W 123°48'0 0.0
2018-Feb-15 21:28N 46°12' W 123°48'0 0.0
2018-Feb-15 20:58N 46°12' W 123°48'0 0.0
2018-Feb-15 20:28N 46°12' W 123°48'0 0.0
2018-Feb-15 19:55N 46°12' W 123°48'0 0.0
2018-Feb-15 19:28N 46°12' W 123°48'0 0.0
2018-Feb-15 18:58N 46°12' W 123°48'0 0.0
2018-Feb-15 18:19N 46°12' W 123°48'0 0.0
2018-Feb-15 17:58N 46°12' W 123°48'0 0.0
2018-Feb-15 17:19N 46°12' W 123°48'0 0.0
2018-Feb-15 16:58N 46°12' W 123°48'0 0.0
2018-Feb-15 16:28N 46°12' W 123°48'0 0.0
2018-Feb-15 15:58N 46°12' W 123°48'0 0.0
2018-Feb-15 15:28N 46°12' W 123°48'0 0.0
2018-Feb-15 14:58N 46°12' W 123°48'0 0.0
2018-Feb-15 14:28N 46°12' W 123°48'0 0.0
2018-Feb-15 13:58N 46°12' W 123°48'0 0.0
2018-Feb-15 13:28N 46°12' W 123°48'0 0.0
2018-Feb-15 12:58N 46°12' W 123°48'0 0.0
2018-Feb-15 12:28N 46°12' W 123°48'0 0.0
2018-Feb-15 11:58N 46°12' W 123°48'0 0.0
2018-Feb-15 11:13N 46°12' W 123°48'0 0.0
2018-Feb-15 10:52N 46°12' W 123°48'0 0.0
2018-Feb-15 10:10N 46°12' W 123°48'0 0.0
2018-Feb-15 09:58N 46°12' W 123°48'0 0.0
2018-Feb-15 09:28N 46°12' W 123°48'0 0.0
2018-Feb-15 08:58N 46°12' W 123°48'0 0.0
2018-Feb-15 08:28N 46°12' W 123°48'0 0.0
2018-Feb-15 07:58N 46°12' W 123°48'0 0.0
2018-Feb-15 07:28N 46°12' W 123°48'0 0.0
2018-Feb-15 06:58N 46°12' W 123°48'0 0.0
2018-Feb-15 06:28N 46°12' W 123°48'0 0.0
2018-Feb-15 05:58N 46°12' W 123°48'0 0.0
2018-Feb-15 05:28N 46°12' W 123°48'0 0.0
2018-Feb-15 04:58N 46°12' W 123°48'0 0.0
2018-Feb-15 04:28N 46°12' W 123°48'0 0.0
2018-Feb-15 03:58N 46°12' W 123°48'0 0.0
2018-Feb-15 03:28N 46°12' W 123°48'0 0.0
2018-Feb-15 02:58N 46°12' W 123°48'0 0.0
2018-Feb-15 02:28N 46°12' W 123°48'0 0.0
2018-Feb-15 01:58N 46°12' W 123°48'0 0.0
2018-Feb-15 01:28N 46°12' W 123°48'0 0.0
2018-Feb-15 00:58N 46°12' W 123°48'0 0.0
2018-Feb-15 00:28N 46°12' W 123°48'0 0.0
2018-Feb-14 23:58N 46°12' W 123°48'0 0.0
2018-Feb-14 23:28N 46°12' W 123°48'0 0.0
2018-Feb-14 22:58N 46°12' W 123°48'0 0.0
2018-Feb-14 22:28N 46°12' W 123°48'0 0.0
2018-Feb-14 21:58N 46°12' W 123°48'0 0.0
2018-Feb-14 21:28N 46°12' W 123°48'0 0.0
2018-Feb-14 20:58N 46°12' W 123°48'0 0.0
2018-Feb-14 20:28N 46°12' W 123°48'0 0.0
2018-Feb-14 19:58N 46°12' W 123°48'0 0.0
2018-Feb-14 19:28N 46°12' W 123°48'0 0.0
2018-Feb-14 18:52N 46°12' W 123°48'0 0.0
2018-Feb-14 18:28N 46°12' W 123°48'0 0.0
2018-Feb-14 17:58N 46°12' W 123°48'0 0.0
2018-Feb-14 17:28N 46°12' W 123°48'0 0.0
2018-Feb-14 16:55N 46°12' W 123°48'0 0.0
2018-Feb-14 16:28N 46°12' W 123°48'0 0.0
2018-Feb-14 15:46N 46°12' W 123°48'0 0.0
2018-Feb-14 15:28N 46°12' W 123°48'0 0.0
2018-Feb-14 14:58N 46°12' W 123°48'0 0.0
2018-Feb-14 14:28N 46°12' W 123°48'0 0.0
2018-Feb-14 13:58N 46°12' W 123°48'0 0.0
2018-Feb-14 13:28N 46°12' W 123°48'0 0.0
2018-Feb-14 12:58N 46°12' W 123°48'0 0.0
2018-Feb-14 12:28N 46°12' W 123°48'0 0.0
2018-Feb-14 11:49N 46°12' W 123°48'0 0.0
2018-Feb-14 11:28N 46°12' W 123°48'0 0.0
2018-Feb-14 10:58N 46°12' W 123°48'0 0.0
2018-Feb-14 10:28N 46°12' W 123°48'0 0.0
2018-Feb-14 09:58N 46°12' W 123°48'0 0.0
2018-Feb-14 09:28N 46°12' W 123°48'0 0.0
2018-Feb-14 08:58N 46°12' W 123°48'0 0.0
2018-Feb-14 08:28N 46°12' W 123°48'0 0.0
2018-Feb-14 07:58N 46°12' W 123°48'0 0.0
2018-Feb-14 07:28N 46°12' W 123°48'0 0.0
2018-Feb-14 06:58N 46°12' W 123°48'0 0.0
2018-Feb-14 06:28N 46°12' W 123°48'0 0.0
2018-Feb-14 05:58N 46°12' W 123°48'0 0.0
2018-Feb-14 05:28N 46°12' W 123°48'0 0.0
2018-Feb-14 04:58N 46°12' W 123°48'0 0.0
2018-Feb-14 04:28N 46°12' W 123°48'0 0.0
2018-Feb-14 03:58N 46°12' W 123°48'0 0.0
2018-Feb-14 03:28N 46°12' W 123°48'0 0.0
2018-Feb-14 02:58N 46°12' W 123°48'0 0.0
2018-Feb-14 02:28N 46°12' W 123°48'0 0.0
2018-Feb-14 01:58N 46°12' W 123°48'0 0.0
2018-Feb-14 01:28N 46°12' W 123°48'0 0.0
2018-Feb-14 00:58N 46°12' W 123°48'0 0.0
2018-Feb-14 00:10N 46°12' W 123°48'0 0.0
2018-Feb-13 23:58N 46°12' W 123°48'0 0.0
2018-Feb-13 23:28N 46°12' W 123°48'0 0.0
2018-Feb-13 22:58N 46°12' W 123°48'0 0.0
2018-Feb-13 22:28N 46°12' W 123°48'0 0.0
2018-Feb-13 21:16N 46°12' W 123°48'0 0.0
2018-Feb-13 20:31N 46°12' W 123°48'0 0.0
2018-Feb-13 20:28N 46°12' W 123°48'0 0.0
2018-Feb-13 19:58N 46°12' W 123°48'0 0.0
2018-Feb-13 19:28N 46°12' W 123°48'0 0.0
2018-Feb-13 18:58N 46°12' W 123°48'0 0.0
2018-Feb-13 18:16N 46°12' W 123°48'0 0.0
2018-Feb-13 17:22N 46°12' W 123°48'0 0.0
2018-Feb-13 16:58N 46°12' W 123°48'0 0.0
2018-Feb-13 16:28N 46°12' W 123°48'0 0.0
2018-Feb-13 15:40N 46°12' W 123°48'0 0.0
2018-Feb-13 15:19N 46°12' W 123°48'0 0.0
2018-Feb-13 14:58N 46°12' W 123°48'0 0.0
2018-Feb-13 14:28N 46°12' W 123°48'0 0.0
2018-Feb-13 13:58N 46°12' W 123°48'0 0.0
2018-Feb-13 13:28N 46°12' W 123°48'0 0.0
2018-Feb-13 12:43N 46°12' W 123°48'0 0.0
2018-Feb-13 12:28N 46°12' W 123°48'0 0.0
2018-Feb-13 11:58N 46°12' W 123°48'0 0.0
2018-Feb-13 11:28N 46°12' W 123°48'0 0.0
2018-Feb-13 10:58N 46°12' W 123°48'0 0.0
2018-Feb-13 10:28N 46°12' W 123°48'0 0.0
2018-Feb-13 09:58N 46°12' W 123°48'0 0.0
2018-Feb-13 09:28N 46°12' W 123°48'0 0.0
2018-Feb-13 08:58N 46°12' W 123°48'0 0.0
2018-Feb-13 08:28N 46°12' W 123°48'0 0.0
2018-Feb-13 07:58N 46°12' W 123°48'0 0.0
2018-Feb-13 07:28N 46°12' W 123°48'0 0.0
2018-Feb-13 06:58N 46°12' W 123°48'0 0.0
2018-Feb-13 06:28N 46°12' W 123°48'0 0.0
2018-Feb-13 05:49N 46°12' W 123°48'0 0.0
2018-Feb-13 05:22N 46°12' W 123°48'0 0.0
2018-Feb-13 04:58N 46°12' W 123°48'0 0.0
2018-Feb-13 04:28N 46°12' W 123°48'0 0.0
2018-Feb-13 03:59N 46°12' W 123°48'0 0.0
2018-Feb-13 03:28N 46°12' W 123°48'0 0.0
2018-Feb-13 02:58N 46°12' W 123°48'0 0.0
2018-Feb-13 02:28N 46°12' W 123°48'0 0.0
2018-Feb-13 01:58N 46°12' W 123°48'0 0.0
2018-Feb-13 01:28N 46°12' W 123°48'0 0.0
2018-Feb-13 00:59N 46°12' W 123°48'0 0.0
2018-Feb-13 00:10N 46°12' W 123°48'0 0.0
2018-Feb-12 23:58N 46°12' W 123°48'0 0.0
2018-Feb-12 23:28N 46°12' W 123°48'0 0.0
2018-Feb-12 22:58N 46°12' W 123°48'0 0.0
2018-Feb-12 22:28N 46°12' W 123°48'0 0.0
2018-Feb-12 21:58N 46°12' W 123°48'0 0.0
2018-Feb-12 21:28N 46°12' W 123°48'4 9.3
2018-Feb-12 21:00N 46°14' W 123°43'4 5.9
2018-Feb-12 20:17N 46°12' W 123°48'0 0.0
2018-Feb-12 19:59N 46°12' W 123°48'0 0.0
2018-Feb-12 19:29N 46°12' W 123°48'0 0.0
2018-Feb-12 18:59N 46°12' W 123°48'2 3.0
2018-Feb-12 18:28N 46°12' W 123°50'1 2.5
2018-Feb-12 18:00N 46°12' W 123°49'0 0.0
2018-Feb-12 17:30N 46°12' W 123°49'1 1.1
2018-Feb-12 16:59N 46°12' W 123°48'0 0.0
2018-Feb-12 16:20N 46°12' W 123°48'0 0.0
2018-Feb-12 15:59N 46°12' W 123°48'0 0.0
2018-Feb-12 15:29N 46°12' W 123°48'0 0.0
2018-Feb-12 14:59N 46°12' W 123°48'0 0.0
2018-Feb-12 14:29N 46°12' W 123°48'0 0.0
2018-Feb-12 13:59N 46°12' W 123°48'0 0.0
2018-Feb-12 13:30N 46°12' W 123°48'1 2.7
2018-Feb-12 12:57N 46°13' W 123°47'1 3.2
2018-Feb-12 12:29N 46°12' W 123°48'0 0.0
2018-Feb-12 11:59N 46°12' W 123°48'0 0.0
2018-Feb-12 11:29N 46°12' W 123°48'0 0.0
2018-Feb-12 10:59N 46°12' W 123°48'0 0.0
2018-Feb-12 10:29N 46°12' W 123°48'0 0.0
2018-Feb-12 09:59N 46°12' W 123°48'0 0.0
2018-Feb-12 09:29N 46°12' W 123°48'1 2.1
2018-Feb-12 09:00N 46°12' W 123°47'1 1.0
2018-Feb-12 08:29N 46°13' W 123°48'0 0.1
2018-Feb-12 08:00N 46°13' W 123°47'1 1.1
2018-Feb-12 07:30N 46°12' W 123°48'1 1.3
2018-Feb-12 07:00N 46°13' W 123°47'0 0.1
2018-Feb-12 06:29N 46°13' W 123°47'0 0.1
2018-Feb-12 05:46N 46°13' W 123°47'0 0.1
2018-Feb-12 05:29N 46°13' W 123°47'3 7.0
2018-Feb-12 05:00N 46°14' W 123°43'3 6.6
2018-Feb-12 04:30N 46°13' W 123°47'1 2.7
2018-Feb-12 04:00N 46°12' W 123°45'1 1.7
2018-Feb-12 03:30N 46°13' W 123°45'1 2.1
2018-Feb-12 02:59N 46°12' W 123°46'1 1.9
2018-Feb-12 02:30N 46°13' W 123°45'2 4.1
2018-Feb-12 01:58N 46°12' W 123°48'0 0.0
2018-Feb-12 01:28N 46°12' W 123°48'0 0.0
2018-Feb-12 00:58N 46°12' W 123°48'0 0.0
2018-Feb-12 00:28N 46°12' W 123°48'0 0.0
2018-Feb-11 23:58N 46°12' W 123°48'0 0.0
2018-Feb-11 23:28N 46°12' W 123°48'0 0.0
2018-Feb-11 22:58N 46°12' W 123°48'0 0.0
2018-Feb-11 22:28N 46°12' W 123°48'0 0.0
2018-Feb-11 21:58N 46°12' W 123°48'0 0.0
2018-Feb-11 21:28N 46°12' W 123°48'0 0.0
2018-Feb-11 20:55N 46°12' W 123°48'0 0.0
2018-Feb-11 20:19N 46°12' W 123°48'0 0.0
2018-Feb-11 19:58N 46°12' W 123°48'0 0.0
2018-Feb-11 19:13N 46°12' W 123°48'0 0.0
2018-Feb-11 18:58N 46°12' W 123°48'0 0.0
2018-Feb-11 18:28N 46°12' W 123°48'1 1.5
2018-Feb-11 18:00N 46°12' W 123°49'1 1.2
2018-Feb-11 17:30N 46°12' W 123°49'1 1.9
2018-Feb-11 17:00N 46°12' W 123°48'0 0.6
2018-Feb-11 16:27N 46°12' W 123°48'0 0.2
2018-Feb-11 15:59N 46°12' W 123°48'0 0.0
2018-Feb-11 15:29N 46°12' W 123°48'0 0.0
2018-Feb-11 14:59N 46°12' W 123°48'0 0.0
2018-Feb-11 14:29N 46°12' W 123°48'0 0.0
2018-Feb-11 13:59N 46°12' W 123°48'0 0.0
2018-Feb-11 13:29N 46°12' W 123°48'0 0.0
2018-Feb-11 12:59N 46°12' W 123°48'0 0.0
2018-Feb-11 12:29N 46°12' W 123°48'0 0.0
2018-Feb-11 11:53N 46°12' W 123°48'0 0.0
2018-Feb-11 11:29N 46°12' W 123°48'0 0.0
2018-Feb-11 10:59N 46°12' W 123°48'0 0.0
2018-Feb-11 10:29N 46°12' W 123°48'0 0.0
2018-Feb-11 09:59N 46°12' W 123°48'0 0.0
2018-Feb-11 09:29N 46°12' W 123°48'0 0.0
2018-Feb-11 08:59N 46°12' W 123°48'0 0.0
2018-Feb-11 08:29N 46°12' W 123°48'0 0.0
2018-Feb-11 07:59N 46°12' W 123°48'0 0.0
2018-Feb-11 07:29N 46°12' W 123°48'0 0.0
2018-Feb-11 06:59N 46°12' W 123°48'0 0.0
2018-Feb-11 06:29N 46°12' W 123°48'0 0.0
2018-Feb-11 05:50N 46°12' W 123°48'0 0.0
2018-Feb-11 05:29N 46°12' W 123°48'0 0.0
2018-Feb-11 04:59N 46°12' W 123°48'0 0.0
2018-Feb-11 04:29N 46°12' W 123°48'0 0.0
2018-Feb-11 03:59N 46°12' W 123°48'0 0.0
2018-Feb-11 03:29N 46°12' W 123°48'0 0.0
2018-Feb-11 02:59N 46°12' W 123°48'0 0.0
2018-Feb-11 02:17N 46°12' W 123°48'0 0.7
2018-Feb-11 01:59N 46°12' W 123°48'1 1.1
2018-Feb-11 01:28N 46°12' W 123°49'1 1.1
2018-Feb-11 00:58N 46°12' W 123°48'0 0.0
2018-Feb-11 00:25N 46°12' W 123°48'0 0.0
2018-Feb-10 23:58N 46°12' W 123°48'0 0.0
2018-Feb-10 23:28N 46°12' W 123°48'0 0.0
2018-Feb-10 22:58N 46°12' W 123°48'0 0.0
2018-Feb-10 22:28N 46°12' W 123°48'0 0.0
2018-Feb-10 21:58N 46°12' W 123°48'0 0.0
2018-Feb-10 21:28N 46°12' W 123°48'0 0.0
2018-Feb-10 20:58N 46°12' W 123°48'0 0.0
2018-Feb-10 20:30N 46°12' W 123°48'0 0.6
2018-Feb-10 20:00N 46°12' W 123°49'0 0.7
2018-Feb-10 19:28N 46°12' W 123°48'0 0.7
2018-Feb-10 18:59N 46°12' W 123°49'2 5.1
2018-Feb-10 18:30N 46°13' W 123°46'2 4.5
2018-Feb-10 17:59N 46°12' W 123°48'4 9.0
2018-Feb-10 17:29N 46°14' W 123°43'4 8.8
2018-Feb-10 17:00N 46°12' W 123°48'0 0.5
2018-Feb-10 16:29N 46°12' W 123°48'0 0.2
2018-Feb-10 15:59N 46°12' W 123°48'0 0.0
2018-Feb-10 15:29N 46°12' W 123°48'0 0.0
2018-Feb-10 14:59N 46°12' W 123°48'0 0.0
2018-Feb-10 14:29N 46°12' W 123°48'0 0.0
2018-Feb-10 13:59N 46°12' W 123°48'0 0.0
2018-Feb-10 13:29N 46°12' W 123°48'0 0.0
2018-Feb-10 12:59N 46°12' W 123°48'0 0.0
2018-Feb-10 12:29N 46°12' W 123°48'0 0.0
2018-Feb-10 11:59N 46°12' W 123°48'  

Dump ship's entire track history